»·PEaware :: N715MG KSNA-KCMA

N715MG :: KSNA-KCMA

FLIGHT INFORMATION

Flight Status: Arrived
Operator: Privately registered:
United States
More flights under this callsign
Pilot: Jonathan W. (21112)
Aircraft: SOCATA TBM-900
(TBM9)
More flights by this aircraft type
Origin: KSNA John Wayne-Orange Co
United States
Destination: KCMA Camarillo
United States
More flights between these airports :: More routes between these airports
Route: +SLI V23 LAX VNY
File this flight plan on PilotEdge
Remarks:
Altitude:
(Current/Filed)
14,000ft
Speed:
(Current/Filed)
180kts
Departed: 02-Dec-18 01:39 PM
Arrived: 02-Dec-18 02:20 PM
Distance/Time
Traveled:
69nm/0:41
Distance/Time
To Go:
Arrived

Flight Plot

Page will automatically refresh every two minutes.


Map Options




Map Legend


Flown Route
Filed Route
Departure Airport
Arrival Airport
Navaid (VOR, NDB)
Fix

Horizontal Profiles

Position Reports

Time Latitude Longitude Heading Altitude Ground
Speed
02-Dec-18 13:24 33.672178 -117.866717 208 59ft 0kts
02-Dec-18 13:25 33.672178 -117.866717 208 59ft 0kts
02-Dec-18 13:26 33.672178 -117.866717 208 59ft 0kts
02-Dec-18 13:27 33.672178 -117.866717 208 59ft 0kts
02-Dec-18 13:28 33.672178 -117.866717 208 59ft 0kts
02-Dec-18 13:29 33.672178 -117.866717 208 59ft 0kts
02-Dec-18 13:30 33.672178 -117.866717 208 59ft 0kts
02-Dec-18 13:31 33.671396 -117.867216 206 59ft 16kts
02-Dec-18 13:32 33.668398 -117.868830 200 59ft 0kts
02-Dec-18 13:33 33.672223 -117.866687 209 59ft 0kts
02-Dec-18 13:34 33.672223 -117.866687 209 59ft 0kts
02-Dec-18 13:35 33.672223 -117.866687 209 59ft 0kts
02-Dec-18 13:36 33.672222 -117.867327 294 59ft 7kts
02-Dec-18 13:37 33.673287 -117.867144 22 59ft 12kts
02-Dec-18 13:38 33.675364 -117.866300 27 59ft 17kts
02-Dec-18 13:39 33.678051 -117.864584 26 59ft 21kts
02-Dec-18 13:40 33.679692 -117.863590 12 59ft 0kts
02-Dec-18 13:41 33.680093 -117.863835 316 59ft 13kts
02-Dec-18 13:42 33.675813 -117.866897 206 59ft 107kts
02-Dec-18 13:43 33.655887 -117.882381 231 882ft 151kts
02-Dec-18 13:44 33.637747 -117.908940 231 2033ft 170kts
02-Dec-18 13:45 33.614334 -117.942908 231 2812ft 187kts
02-Dec-18 13:46 33.599373 -117.962766 231 4464ft 147kts
02-Dec-18 13:47 33.588462 -117.981806 277 5565ft 135kts
02-Dec-18 13:48 33.602639 -118.000344 323 6062ft 176kts
02-Dec-18 13:49 33.625688 -118.024837 313 6009ft 215kts
02-Dec-18 13:50 33.649864 -118.055187 312 5989ft 228kts
02-Dec-18 13:51 33.675214 -118.088362 312 5982ft 232kts
02-Dec-18 13:52 33.698657 -118.119323 311 5982ft 232kts
02-Dec-18 13:53 33.722704 -118.151222 311 5982ft 232kts
02-Dec-18 13:54 33.745682 -118.181758 310 5982ft 230kts
02-Dec-18 13:55 33.768185 -118.211706 310 5983ft 226kts
02-Dec-18 13:56 33.793832 -118.245873 310 5984ft 225kts
02-Dec-18 13:57 33.820728 -118.281726 309 5986ft 225kts
02-Dec-18 13:58 33.846912 -118.316660 309 5987ft 225kts
02-Dec-18 13:59 33.871957 -118.350180 310 5989ft 227kts
02-Dec-18 14:00 33.897704 -118.384641 311 5989ft 231kts
02-Dec-18 14:01 33.925643 -118.422024 312 5987ft 233kts
02-Dec-18 14:02 33.966041 -118.438270 347 5989ft 237kts
02-Dec-18 14:03 34.009407 -118.447579 348 5985ft 237kts
02-Dec-18 14:04 34.040636 -118.476418 278 5983ft 241kts
02-Dec-18 14:05 34.048272 -118.529384 287 5987ft 242kts
02-Dec-18 14:06 34.060068 -118.581238 289 5990ft 244kts
02-Dec-18 14:07 34.072301 -118.631408 289 5984ft 227kts
02-Dec-18 14:08 34.083370 -118.676671 288 5528ft 225kts
02-Dec-18 14:09 34.094795 -118.723560 287 4830ft 229kts
02-Dec-18 14:10 34.106019 -118.769643 287 4153ft 231kts
02-Dec-18 14:11 34.140300 -118.792791 351 4001ft 226kts
02-Dec-18 14:12 34.181908 -118.796586 354 3994ft 223kts
02-Dec-18 14:13 34.209589 -118.821396 282 3346ft 218kts
02-Dec-18 14:14 34.211962 -118.864920 281 3172ft 185kts
02-Dec-18 14:15 34.212112 -118.902194 271 2855ft 164kts
02-Dec-18 14:16 34.212353 -118.936138 271 2432ft 157kts
02-Dec-18 14:17 34.212665 -118.967261 271 2040ft 139kts
02-Dec-18 14:18 34.212903 -118.994196 271 1579ft 138kts
02-Dec-18 14:19 34.213156 -119.023193 271 1100ft 136kts
02-Dec-18 14:20 34.213392 -119.050153 271 724ft 112kts
02-Dec-18 14:21 34.213563 -119.072130 272 295ft 88kts
02-Dec-18 14:22 34.213743 -119.091040 271 69ft 68kts
02-Dec-18 14:23 34.213416 -119.095180 234 65ft 17kts

Navigation Log

Ident Type
Flight plan parsing failed, navigation log unavailable